Time;durP1;ratioP1;P1;durP2;ratioP2;P2;SDS_P1;SDS_P2;PMS_P1;PMS_P2;Temp;Humidity;BMP_temperature;BMP_pressure;BME280_temperature;BME280_humidity;BME280_pressure;Samples;Min_cycle;Max_cycle;Signal;HPM_P1;HPM_P2
2022/07/30 00:01:11;;;;;;;8.40;4.18;;;;;;;24.28;53.86;94865.78;5013218;28;20283;-78
2022/07/30 00:03:36;;;;;;;22.33;7.30;;;;;;;24.32;53.74;94869.44;5013096;28;20637;-78
2022/07/30 00:06:02;;;;;;;4.05;3.10;;;;;;;24.31;52.46;94867.84;5012772;28;20173;-77
2022/07/30 00:08:27;;;;;;;4.25;3.10;;;;;;;24.09;52.34;94841.59;5012993;28;20196;-78
2022/07/30 00:10:53;;;;;;;6.32;3.63;;;;;;;24.22;53.38;94867.75;5012546;28;20175;-78
2022/07/30 00:13:18;;;;;;;4.25;3.13;;;;;;;24.06;54.62;94864.47;5013073;28;20161;-78
2022/07/30 00:15:44;;;;;;;5.95;3.55;;;;;;;23.83;55.63;94848.47;5012849;28;20621;-78
2022/07/30 00:18:09;;;;;;;4.47;3.38;;;;;;;23.55;57.12;94866.38;5012979;28;20244;-78
2022/07/30 00:20:35;;;;;;;5.80;3.72;;;;;;;23.54;55.98;94865.59;4997490;28;20220;-78
2022/07/30 00:23:04;;;;;;;3.45;2.97;;;;;;;23.54;54.75;94859.41;5012651;28;20553;-78
2022/07/30 00:25:29;;;;;;;6.90;3.25;;;;;;;23.69;53.60;94865.38;5013014;28;20669;-78
2022/07/30 00:27:55;;;;;;;2.92;2.60;;;;;;;23.84;53.12;94860.84;5012801;28;20234;-78
2022/07/30 00:30:21;;;;;;;3.33;2.60;;;;;;;23.96;52.56;94861.97;5012891;28;20179;-79
2022/07/30 00:32:47;;;;;;;3.53;2.88;;;;;;;24.06;52.24;94861.00;5012865;28;20701;-78
2022/07/30 00:35:12;;;;;;;6.93;3.22;;;;;;;23.91;53.84;94837.06;5012556;28;20192;-78
2022/07/30 00:37:38;;;;;;;3.63;3.30;;;;;;;24.09;52.76;94860.41;5012753;28;20173;-78
2022/07/30 00:40:05;;;;;;;4.13;3.13;;;;;;;24.15;52.27;94858.41;5012674;28;20178;-79
2022/07/30 00:42:42;;;;;;;6.60;4.47;;;;;;;23.97;55.85;94862.75;5012739;28;20180;-79
2022/07/30 00:45:09;;;;;;;5.72;4.40;;;;;;;23.89;56.37;94864.22;5012884;28;20174;-79
2022/07/30 00:47:35;;;;;;;5.55;4.60;;;;;;;23.64;56.27;94841.25;5012889;28;20184;-79
2022/07/30 00:50:03;;;;;;;8.70;3.50;;;;;;;23.70;55.80;94858.88;5012750;28;20287;-79
2022/07/30 00:52:30;;;;;;;5.25;3.50;;;;;;;23.37;57.54;94854.53;4994883;28;21073;-78
2022/07/30 00:54:56;;;;;;;7.82;4.78;;;;;;;23.38;57.80;94856.13;5012712;28;20200;-79
2022/07/30 00:57:21;;;;;;;7.38;5.55;;;;;;;23.37;57.75;94851.84;5012642;28;20235;-79
2022/07/30 00:59:47;;;;;;;12.48;7.88;;;;;;;23.17;58.32;94850.25;5012486;28;20168;-79
2022/07/30 01:02:12;;;;;;;7.45;5.18;;;;;;;23.27;58.18;94847.41;5012450;28;20214;-79
2022/07/30 01:04:37;;;;;;;7.35;5.10;;;;;;;23.28;58.18;94842.81;5012220;28;20176;-79
2022/07/30 01:07:03;;;;;;;11.15;5.03;;;;;;;23.36;57.74;94850.22;5012326;28;20176;-79
2022/07/30 01:09:28;;;;;;;6.38;4.43;;;;;;;23.31;58.35;94856.50;5012238;28;20665;-79
2022/07/30 01:11:54;;;;;;;5.10;4.55;;;;;;;23.30;58.97;94854.09;5012065;28;20175;-79
2022/07/30 01:14:20;;;;;;;13.93;8.68;;;;;;;23.25;59.44;94856.84;5012228;28;20662;-79
2022/07/30 01:16:45;;;;;;;8.02;6.15;;;;;;;23.24;59.71;94855.25;5011952;28;20230;-79
2022/07/30 01:22:25;;;;;;;6.13;4.20;;;;;;;23.22;59.60;94852.84;5010976;28;20676;-79
2022/07/30 01:25:06;;;;;;;4.38;3.95;;;;;;;23.25;59.49;94851.47;4992481;28;20586;-79
2022/07/30 01:27:46;;;;;;;8.77;5.35;;;;;;;23.16;59.53;94837.91;4992270;28;20700;-79
2022/07/30 01:30:13;;;;;;;11.52;6.97;;;;;;;23.05;59.60;94831.06;4992478;28;20173;-79
2022/07/30 01:32:42;;;;;;;9.35;7.05;;;;;;;23.16;59.86;94850.53;4991590;28;20527;-79
2022/07/30 01:35:09;;;;;;;9.25;6.50;;;;;;;22.99;60.40;94852.91;4992351;28;20177;-79
2022/07/30 01:37:37;;;;;;;10.70;7.03;;;;;;;22.93;60.82;94854.84;4992266;28;20165;-79
2022/07/30 01:40:04;;;;;;;5.50;4.63;;;;;;;22.90;60.92;94853.56;4992252;28;20259;-79
2022/07/30 01:42:31;;;;;;;6.38;4.32;;;;;;;22.91;60.83;94859.72;4992296;28;20219;-79
2022/07/30 01:44:58;;;;;;;11.10;6.70;;;;;;;22.95;60.71;94858.03;4992245;28;20165;-79
2022/07/30 01:47:24;;;;;;;9.57;6.88;;;;;;;22.61;61.86;94838.56;4992099;28;20188;-76
2022/07/30 01:49:52;;;;;;;6.97;4.38;;;;;;;22.53;62.54;94862.28;4992309;28;20650;-76
2022/07/30 01:52:19;;;;;;;5.93;4.93;;;;;;;22.44;62.56;94849.75;4992314;28;20169;-76
2022/07/30 01:54:47;;;;;;;8.57;5.40;;;;;;;22.51;63.19;94856.38;4992206;28;20165;-76
2022/07/30 01:57:15;;;;;;;13.23;7.82;;;;;;;22.45;63.07;94854.84;4992315;28;20177;-76
2022/07/30 01:59:44;;;;;;;15.20;10.43;;;;;;;22.51;63.33;94853.69;4992411;28;20843;-76
2022/07/30 02:02:10;;;;;;;18.90;11.98;;;;;;;22.53;63.58;94856.91;4992092;28;20173;-76
2022/07/30 02:04:35;;;;;;;11.13;7.18;;;;;;;22.44;62.91;94844.41;4992268;28;20203;-76
2022/07/30 02:07:23;;;;;;;7.78;4.95;;;;;;;22.42;63.67;94852.72;4992247;28;20177;-76
2022/07/30 02:09:54;;;;;;;9.95;5.88;;;;;;;22.42;63.79;94846.56;4991975;28;20961;-76
2022/07/30 02:12:29;;;;;;;11.25;7.20;;;;;;;22.37;63.89;94841.25;4992316;28;20213;-76
2022/07/30 02:14:57;;;;;;;14.27;8.00;;;;;;;22.42;64.29;94849.25;4991817;28;20222;-76
2022/07/30 02:17:31;;;;;;;6.13;4.63;;;;;;;22.24;64.21;94833.88;4991741;28;20250;-76
2022/07/30 02:19:58;;;;;;;12.73;5.75;;;;;;;22.34;64.33;94842.63;4991877;28;20269;-76
2022/07/30 02:22:27;;;;;;;10.85;6.22;;;;;;;22.32;64.72;94846.66;4974439;28;20169;-76
2022/07/30 02:24:57;;;;;;;8.45;5.00;;;;;;;22.27;64.39;94841.38;4992063;28;20560;-76
2022/07/30 02:27:29;;;;;;;4.75;4.03;;;;;;;22.27;64.79;94838.69;4991822;28;20658;-76
2022/07/30 02:29:59;;;;;;;6.50;4.25;;;;;;;22.25;64.82;94835.47;4974549;28;20204;-76
2022/07/30 02:32:28;;;;;;;7.53;4.70;;;;;;;22.14;65.21;94838.25;5009805;28;20183;-76
2022/07/30 02:34:59;;;;;;;7.10;4.95;;;;;;;22.13;65.56;94839.38;5011110;28;20180;-76
2022/07/30 02:37:26;;;;;;;6.10;4.38;;;;;;;21.99;65.41;94810.78;5011191;28;20230;-78
2022/07/30 02:39:54;;;;;;;6.05;4.47;;;;;;;22.12;66.02;94835.09;5010510;28;20704;-78
2022/07/30 02:42:21;;;;;;;5.15;4.38;;;;;;;21.90;65.87;94812.47;5011043;28;20165;-78
2022/07/30 02:44:48;;;;;;;9.65;5.07;;;;;;;22.00;65.90;94831.97;5013615;28;20179;-78
2022/07/30 02:47:15;;;;;;;7.85;5.07;;;;;;;21.95;66.23;94826.63;5014331;28;20684;-78
2022/07/30 02:49:43;;;;;;;10.32;5.15;;;;;;;21.98;65.87;94834.13;5014499;28;20169;-78
2022/07/30 02:52:12;;;;;;;10.02;5.18;;;;;;;21.96;66.28;94833.59;5014308;28;20169;-78
2022/07/30 02:54:40;;;;;;;6.82;5.07;;;;;;;21.88;67.01;94820.78;5013267;28;20407;-77
2022/07/30 02:57:08;;;;;;;11.25;4.45;;;;;;;22.02;66.62;94829.81;5012309;28;20176;-77
2022/07/30 02:59:36;;;;;;;12.00;4.55;;;;;;;22.01;66.31;94833.56;4993866;28;20173;-78
2022/07/30 03:02:03;;;;;;;7.15;4.70;;;;;;;22.02;66.40;94829.00;4993738;28;20672;-78
2022/07/30 03:04:30;;;;;;;8.05;4.88;;;;;;;22.01;66.43;94820.16;4994347;28;20176;-78
2022/07/30 03:06:58;;;;;;;9.27;5.20;;;;;;;21.93;65.93;94823.44;4994618;28;20173;-78
2022/07/30 03:09:24;;;;;;;10.38;5.13;;;;;;;21.97;66.48;94821.78;4994456;28;20232;-78
2022/07/30 03:11:51;;;;;;;12.82;5.53;;;;;;;21.79;66.28;94819.81;4994446;28;20177;-78
2022/07/30 03:14:17;;;;;;;8.10;4.80;;;;;;;21.68;67.19;94810.25;4994288;28;20642;-78
2022/07/30 03:16:54;;;;;;;9.73;4.63;;;;;;;21.69;66.78;94820.69;4994399;28;20275;-78
2022/07/30 03:19:22;;;;;;;13.85;5.07;;;;;;;21.70;67.29;94822.31;4981834;28;20658;-77
2022/07/30 03:21:49;;;;;;;8.13;4.88;;;;;;;21.72;67.16;94809.41;4985982;28;20177;-77
2022/07/30 03:24:16;;;;;;;12.77;4.63;;;;;;;21.61;67.05;94804.41;4992491;28;20193;-78
2022/07/30 03:26:43;;;;;;;7.88;4.68;;;;;;;21.61;66.86;94821.31;4986568;28;20666;-78
2022/07/30 03:29:10;;;;;;;13.15;7.28;;;;;;;21.48;68.63;94815.75;4984765;28;20252;-78
2022/07/30 03:31:38;;;;;;;7.38;4.95;;;;;;;21.48;68.42;94818.44;4994282;28;20181;-78
2022/07/30 03:34:07;;;;;;;12.00;5.97;;;;;;;21.23;68.31;94787.28;4994390;28;20184;-78
2022/07/30 03:36:34;;;;;;;10.35;7.43;;;;;;;21.54;68.22;94823.47;4994097;28;20216;-77
2022/07/30 03:39:01;;;;;;;13.30;8.68;;;;;;;21.58;68.20;94826.41;4994412;28;20591;-78
2022/07/30 03:41:27;;;;;;;12.65;7.38;;;;;;;21.58;68.53;94821.84;4993760;28;20173;-78
2022/07/30 03:43:54;;;;;;;9.45;7.32;;;;;;;21.62;68.76;94836.28;4994093;28;20180;-78
2022/07/30 03:46:21;;;;;;;12.85;7.57;;;;;;;21.50;68.70;94818.97;4993789;28;20558;-78
2022/07/30 03:48:47;;;;;;;11.63;7.65;;;;;;;21.62;69.03;94836.28;4993924;28;20207;-78
2022/07/30 03:51:13;;;;;;;15.93;6.85;;;;;;;21.60;68.85;94837.66;4993632;28;20256;-78
2022/07/30 03:53:40;;;;;;;9.98;5.70;;;;;;;21.58;68.49;94839.81;4993608;28;20176;-77
2022/07/30 03:56:07;;;;;;;13.05;6.97;;;;;;;21.60;68.62;94845.69;4992921;28;20623;-78
2022/07/30 03:58:32;;;;;;;14.23;7.00;;;;;;;21.54;68.74;94814.63;4992473;28;20563;-78
2022/07/30 04:00:58;;;;;;;10.10;5.05;;;;;;;21.84;67.05;94842.00;4986768;28;20232;-77
2022/07/30 04:03:28;;;;;;;7.18;4.47;;;;;;;21.89;66.75;94846.50;4992512;28;20605;-77
2022/07/30 04:05:53;;;;;;;6.78;4.15;;;;;;;21.88;66.21;94833.41;4992796;28;20173;-77
2022/07/30 04:08:20;;;;;;;6.30;4.60;;;;;;;21.99;65.38;94851.00;4993551;28;20197;-77
2022/07/30 04:10:47;;;;;;;10.20;4.47;;;;;;;21.92;65.52;94835.22;4991590;28;20212;-77
2022/07/30 04:13:12;;;;;;;10.52;4.93;;;;;;;22.12;65.85;94848.50;4984035;28;20181;-76
2022/07/30 04:15:50;;;;;;;10.77;4.80;;;;;;;22.22;65.62;94849.47;4992826;28;20194;-76
2022/07/30 04:18:17;;;;;;;11.20;4.75;;;;;;;22.20;64.99;94828.28;5008785;28;20220;-76
2022/07/30 04:20:47;;;;;;;10.45;4.93;;;;;;;22.49;64.83;94855.88;5012481;28;20169;-76
2022/07/30 04:23:14;;;;;;;5.13;4.50;;;;;;;22.66;64.21;94860.78;5012327;28;20172;-77
2022/07/30 04:25:42;;;;;;;13.65;5.20;;;;;;;22.83;64.24;94858.44;5012210;28;20266;-76
2022/07/30 04:28:10;;;;;;;10.15;5.05;;;;;;;22.86;63.58;94844.47;5012061;28;20187;-77
2022/07/30 04:30:36;;;;;;;13.90;4.65;;;;;;;23.17;62.92;94854.81;5012047;28;20187;-77
2022/07/30 04:33:03;;;;;;;5.47;4.13;;;;;;;23.15;62.73;94836.31;5012243;28;20172;-77
2022/07/30 04:35:30;;;;;;;8.35;4.45;;;;;;;23.12;62.68;94801.97;5011963;28;20173;-76
2022/07/30 04:37:56;;;;;;;7.85;4.70;;;;;;;23.72;62.12;94866.66;5011930;28;20188;-76
2022/07/30 04:40:21;;;;;;;6.57;4.43;;;;;;;23.89;61.26;94866.13;5011942;28;20662;-76
2022/07/30 04:42:47;;;;;;;9.05;4.32;;;;;;;24.07;61.12;94868.78;4994425;28;20226;-76
2022/07/30 04:45:13;;;;;;;8.80;4.70;;;;;;;24.20;60.32;94869.91;5012069;28;20179;-74
2022/07/30 04:47:38;;;;;;;9.63;5.30;;;;;;;24.43;59.36;94868.97;4994064;28;20200;-74
2022/07/30 04:50:06;;;;;;;10.82;5.07;;;;;;;24.60;58.96;94859.53;5011794;28;20267;-78
2022/07/30 04:52:32;;;;;;;10.50;5.13;;;;;;;24.90;58.29;94868.91;5012207;28;20256;-77
2022/07/30 04:55:02;;;;;;;8.95;4.65;;;;;;;25.14;58.13;94870.31;5011652;28;20740;-77
2022/07/30 04:57:30;;;;;;;11.18;4.80;;;;;;;25.40;56.92;94867.06;5012163;28;20703;-78
2022/07/30 04:59:56;;;;;;;5.38;4.13;;;;;;;25.53;55.95;94864.31;4993797;28;20878;-77
2022/07/30 05:02:25;;;;;;;6.07;4.05;;;;;;;25.69;54.98;94856.69;5011940;28;20175;-78
2022/07/30 05:04:53;;;;;;;7.85;4.28;;;;;;;25.83;54.71;94852.06;5011961;28;20235;-77
2022/07/30 05:07:20;;;;;;;4.60;4.10;;;;;;;25.83;54.41;94843.16;5012348;28;20188;-78
2022/07/30 05:09:46;;;;;;;5.32;4.15;;;;;;;26.03;53.83;94853.47;5012815;28;20185;-76
2022/07/30 05:12:12;;;;;;;7.55;4.53;;;;;;;26.12;53.85;94854.31;5012731;28;20181;-77
2022/07/30 05:14:38;;;;;;;8.05;4.60;;;;;;;25.98;53.66;94829.31;5012870;28;20223;-76
2022/07/30 05:17:04;;;;;;;7.60;4.88;;;;;;;26.23;53.77;94855.63;5012125;28;20991;-77
2022/07/30 05:19:30;;;;;;;15.43;5.35;;;;;;;26.34;53.44;94856.22;5011640;28;20266;-77
2022/07/30 05:21:55;;;;;;;7.28;4.97;;;;;;;26.49;52.99;94863.09;5011215;28;20181;-77
2022/07/30 05:24:21;;;;;;;7.10;4.15;;;;;;;26.46;52.06;94847.53;5011299;28;20646;-77
2022/07/30 05:26:46;;;;;;;9.82;4.90;;;;;;;26.60;52.75;94850.94;5011125;28;20179;-77
2022/07/30 05:29:12;;;;;;;7.57;4.68;;;;;;;26.73;52.65;94847.31;5011433;28;20208;-78
2022/07/30 05:31:37;;;;;;;8.27;4.57;;;;;;;27.07;50.82;94860.16;5011782;28;20178;-79
2022/07/30 05:34:03;;;;;;;8.98;4.60;;;;;;;27.23;51.33;94855.94;5011632;28;20618;-79
2022/07/30 05:36:29;;;;;;;9.07;6.55;;;;;;;27.46;51.77;94870.09;5011604;28;20211;-78
2022/07/30 05:38:54;;;;;;;8.80;5.28;;;;;;;27.55;51.53;94856.63;5011274;28;20175;-77
2022/07/30 05:41:19;;;;;;;13.75;10.05;;;;;;;27.77;50.15;94862.66;5011155;28;20227;-77
2022/07/30 05:43:45;;;;;;;7.80;4.40;;;;;;;27.72;49.80;94864.75;4993346;28;20204;-77
2022/07/30 05:46:11;;;;;;;12.60;5.70;;;;;;;27.75;50.43;94859.50;5010440;28;20194;-77
2022/07/30 05:48:37;;;;;;;17.13;5.40;;;;;;;27.77;49.19;94857.25;5010614;28;20204;-77
2022/07/30 05:51:03;;;;;;;11.75;6.18;;;;;;;27.36;50.68;94846.06;5009981;28;20178;-77
2022/07/30 05:53:28;;;;;;;7.65;6.03;;;;;;;27.50;51.22;94840.53;5010357;28;20180;-77
2022/07/30 05:55:53;;;;;;;9.90;5.32;;;;;;;27.92;50.14;94864.09;5010876;28;20183;-77
2022/07/30 05:58:19;;;;;;;12.18;4.28;;;;;;;28.07;49.54;94871.72;5010813;28;20271;-77
2022/07/30 06:00:44;;;;;;;9.80;4.43;;;;;;;28.28;48.74;94868.38;5010776;28;20176;-77
2022/07/30 06:03:10;;;;;;;9.55;4.05;;;;;;;28.47;48.47;94866.09;5010716;28;20665;-77
2022/07/30 06:05:36;;;;;;;8.07;6.05;;;;;;;28.68;47.81;94869.69;5010499;28;20195;-77
2022/07/30 06:08:02;;;;;;;8.60;5.32;;;;;;;28.73;46.22;94871.41;5009672;28;20207;-74
2022/07/30 06:10:27;;;;;;;12.55;5.72;;;;;;;28.65;47.17;94873.03;5009610;28;20271;-74
2022/07/30 06:12:53;;;;;;;8.57;5.13;;;;;;;28.92;48.40;94873.75;5009740;28;20177;-74
2022/07/30 06:15:18;;;;;;;5.28;4.07;;;;;;;29.26;46.72;94868.16;5009730;28;20172;-74
2022/07/30 06:17:46;;;;;;;6.93;4.10;;;;;;;29.44;46.45;94868.88;5009619;28;20788;-77
2022/07/30 06:20:13;;;;;;;9.93;3.97;;;;;;;29.57;45.56;94873.28;5013590;28;20207;-77
2022/07/30 06:22:38;;;;;;;9.52;4.45;;;;;;;29.71;46.51;94870.28;5014238;28;20227;-77
2022/07/30 06:25:05;;;;;;;7.75;4.13;;;;;;;29.89;45.67;94875.25;5014427;28;20614;-77
2022/07/30 06:27:32;;;;;;;6.68;4.75;;;;;;;29.98;45.03;94869.78;5014297;28;20178;-77
2022/07/30 06:29:59;;;;;;;5.50;3.78;;;;;;;30.12;45.42;94855.88;5014371;28;20638;-77
2022/07/30 06:32:25;;;;;;;11.02;4.97;;;;;;;30.40;43.38;94862.31;5014238;28;20235;-77
2022/07/30 06:34:50;;;;;;;8.57;3.97;;;;;;;30.22;42.87;94847.31;5014328;28;20180;-78
2022/07/30 06:37:16;;;;;;;5.60;4.32;;;;;;;30.08;43.07;94861.22;5014981;28;20602;-76
2022/07/30 06:39:41;;;;;;;5.00;3.88;;;;;;;29.89;43.13;94858.16;5015155;28;20172;-78
2022/07/30 06:42:07;;;;;;;9.00;4.32;;;;;;;29.76;43.97;94849.16;5007515;28;20197;-76
2022/07/30 06:44:32;;;;;;;7.65;3.95;;;;;;;29.72;43.78;94828.44;5005045;28;20282;-77
2022/07/30 06:46:58;;;;;;;6.63;3.45;;;;;;;29.86;43.69;94848.75;5011027;28;20557;-77
2022/07/30 06:49:23;;;;;;;5.03;3.95;;;;;;;29.97;43.00;94849.16;5012167;28;20204;-76
2022/07/30 06:51:48;;;;;;;34.70;7.03;;;;;;;29.98;42.67;94839.91;5008319;28;20646;-75
2022/07/30 06:54:14;;;;;;;38.17;4.82;;;;;;;29.84;42.85;94833.94;5011043;28;20188;-79
2022/07/30 06:56:40;;;;;;;5.93;4.13;;;;;;;30.20;42.74;94836.78;5008222;28;20185;-79
2022/07/30 06:59:05;;;;;;;7.18;4.10;;;;;;;30.24;42.04;94834.22;5009245;28;20695;-78
2022/07/30 07:01:31;;;;;;;6.25;4.38;;;;;;;30.23;42.86;94824.47;5008416;28;20184;-79
2022/07/30 07:03:56;;;;;;;5.50;3.60;;;;;;;30.33;41.65;94832.19;4995054;28;20195;-79
2022/07/30 07:06:22;;;;;;;42.70;6.82;;;;;;;30.39;43.21;94828.91;5006579;28;20617;-79
2022/07/30 07:08:47;;;;;;;8.32;3.95;;;;;;;30.56;42.26;94822.53;5006454;28;20231;-80
2022/07/30 07:11:13;;;;;;;78.85;11.27;;;;;;;30.81;41.32;94828.75;5009198;28;20191;-78
2022/07/30 07:13:38;;;;;;;107.30;11.75;;;;;;;30.95;40.92;94829.25;5012621;28;20677;-78
2022/07/30 07:16:04;;;;;;;83.47;13.75;;;;;;;31.00;41.39;94833.66;5010861;28;20188;-78
2022/07/30 07:18:29;;;;;;;74.65;10.55;;;;;;;31.18;40.74;94809.75;5013354;28;20252;-78
2022/07/30 07:20:55;;;;;;;166.82;25.65;;;;;;;31.04;40.48;94826.41;5013596;28;20227;-77
2022/07/30 07:23:20;;;;;;;90.80;19.25;;;;;;;30.66;41.94;94807.69;5009945;28;20181;-77
2022/07/30 07:25:46;;;;;;;1999.90;999.90;;;;;;;30.82;41.65;94824.91;5014099;28;20259;-78
2022/07/30 07:28:11;;;;;;;144.85;23.55;;;;;;;30.97;41.35;94821.50;5013244;28;20192;-77
2022/07/30 07:30:37;;;;;;;4.75;4.22;;;;;;;30.86;41.00;94814.97;5011510;28;20180;-77
2022/07/30 07:33:02;;;;;;;206.13;33.97;;;;;;;30.69;41.76;94820.63;5005952;28;20733;-77
2022/07/30 07:35:28;;;;;;;126.28;17.73;;;;;;;30.25;41.99;94828.44;5009817;28;20181;-75
2022/07/30 07:37:53;;;;;;;119.60;17.48;;;;;;;30.36;42.87;94818.72;5010308;28;20196;-75
2022/07/30 07:40:19;;;;;;;127.88;13.43;;;;;;;30.75;41.76;94820.06;5005283;28;20177;-77
2022/07/30 07:42:44;;;;;;;94.15;16.65;;;;;;;31.05;41.99;94827.97;5012606;28;20243;-77
2022/07/30 07:45:10;;;;;;;128.80;17.15;;;;;;;30.92;41.24;94824.47;5006919;28;20177;-79
2022/07/30 07:47:43;;;;;;;150.15;19.58;;;;;;;30.90;42.44;94796.81;5003739;28;20180;-80
2022/07/30 07:50:09;;;;;;;181.25;20.60;;;;;;;30.90;41.58;94802.25;5005284;28;20652;-82
2022/07/30 07:52:34;;;;;;;184.80;28.58;;;;;;;30.88;41.86;94820.84;4993097;28;20173;-79
2022/07/30 07:54:59;;;;;;;116.80;17.13;;;;;;;30.99;41.46;94824.69;5013647;28;20224;-77
2022/07/30 07:57:25;;;;;;;185.05;23.98;;;;;;;31.15;41.68;94818.59;5008595;28;20176;-78
2022/07/30 07:59:53;;;;;;;152.57;18.33;;;;;;;31.32;41.72;94810.16;4994843;28;20526;-78
2022/07/30 08:02:18;;;;;;;128.00;19.73;;;;;;;31.54;42.09;94814.31;5013254;28;20283;-80
2022/07/30 08:04:45;;;;;;;101.82;13.57;;;;;;;31.55;41.68;94818.63;5006057;28;20685;-79
2022/07/30 08:07:11;;;;;;;172.15;21.98;;;;;;;31.43;41.17;94816.72;5008416;28;20552;-81
2022/07/30 08:09:36;;;;;;;401.63;105.55;;;;;;;31.43;40.55;94817.53;5013819;28;20193;-79
2022/07/30 08:12:02;;;;;;;193.35;20.70;;;;;;;31.35;41.87;94791.22;5009831;28;20183;-78
2022/07/30 08:14:27;;;;;;;103.72;15.77;;;;;;;31.74;42.02;94814.16;5009921;28;20650;-79
2022/07/30 08:16:53;;;;;;;1999.90;999.90;;;;;;;31.53;40.49;94821.69;5011951;28;20224;-79
2022/07/30 08:19:18;;;;;;;1999.90;999.90;;;;;;;31.45;40.68;94809.03;5001434;28;20223;-80
2022/07/30 08:21:43;;;;;;;317.65;34.13;;;;;;;31.53;41.94;94805.38;5005953;28;20557;-80
2022/07/30 08:24:09;;;;;;;1999.90;999.90;;;;;;;31.47;40.82;94796.66;5016701;28;20204;-78
2022/07/30 08:26:34;;;;;;;1086.70;222.43;;;;;;;31.59;40.65;94803.97;5012411;28;20594;-79
2022/07/30 08:29:00;;;;;;;1085.47;262.90;;;;;;;31.82;39.77;94813.25;5011729;28;20231;-79
2022/07/30 08:31:25;;;;;;;5.10;3.22;;;;;;;31.83;39.14;94811.28;5012094;28;20680;-78
2022/07/30 08:33:51;;;;;;;4.57;3.20;;;;;;;31.75;39.08;94788.53;5012488;28;20184;-80
2022/07/30 08:36:16;;;;;;;1999.90;999.90;;;;;;;31.87;40.89;94793.13;5007618;28;20239;-80
2022/07/30 08:38:42;;;;;;;7.82;3.78;;;;;;;32.01;39.88;94800.88;5013649;28;20600;-80
2022/07/30 08:41:08;;;;;;;5.15;4.28;;;;;;;32.05;40.36;94794.41;5004278;28;20662;-80
2022/07/30 08:43:34;;;;;;;4.72;3.22;;;;;;;32.24;38.81;94799.22;5013365;28;20904;-79
2022/07/30 08:46:02;;;;;;;3.47;3.13;;;;;;;32.23;38.18;94790.25;5020235;28;20189;-79
2022/07/30 08:48:28;;;;;;;3.50;3.15;;;;;;;32.04;38.46;94792.81;4996268;28;20188;-79
2022/07/30 08:50:54;;;;;;;3.88;3.20;;;;;;;31.97;39.49;94767.31;5013692;28;20177;-80
2022/07/30 08:53:20;;;;;;;3.97;3.50;;;;;;;31.89;39.11;94752.72;5003701;28;20670;-79
2022/07/30 08:55:46;;;;;;;5.75;3.60;;;;;;;31.98;38.50;94753.34;5010502;28;20188;-79
2022/07/30 08:58:34;;;;;;;4.70;3.60;;;;;;;31.73;38.46;94779.94;5006868;28;20187;-80
2022/07/30 09:01:00;;;;;;;3.83;3.30;;;;;;;31.80;38.81;94782.84;5007728;28;20180;-77
2022/07/30 09:03:26;;;;;;;5.75;3.85;;;;;;;31.75;38.27;94755.84;5011946;28;20650;-79
2022/07/30 09:05:52;;;;;;;8.35;4.03;;;;;;;31.94;39.08;94776.97;5013567;28;20172;-83
2022/07/30 09:08:17;;;;;;;6.53;3.50;;;;;;;32.07;37.83;94766.81;4999763;28;20287;-81
2022/07/30 09:10:43;;;;;;;3.72;3.35;;;;;;;32.18;37.89;94776.88;5011792;28;20208;-80
2022/07/30 09:13:27;;;;;;;8.52;3.90;;;;;;;32.24;38.00;94766.53;5015255;28;20168;-80
2022/07/30 09:15:53;;;;;;;5.53;3.28;;;;;;;32.37;37.47;94757.09;5012401;28;20180;-80
2022/07/30 09:18:45;;;;;;;4.10;3.70;;;;;;;32.45;37.23;94755.34;5011990;28;20378;-81
2022/07/30 09:21:13;;;;;;;5.93;3.58;;;;;;;32.49;36.86;94756.25;5007289;28;20201;-79
2022/07/30 09:23:39;;;;;;;4.97;3.85;;;;;;;32.50;37.29;94750.44;5007484;28;20350;-78
2022/07/30 09:26:05;;;;;;;3.90;3.50;;;;;;;31.99;37.21;94743.25;5006797;28;20177;-78
2022/07/30 09:28:32;;;;;;;5.60;3.75;;;;;;;32.00;38.18;94750.28;5012062;28;20203;-79
2022/07/30 09:30:59;;;;;;;6.70;3.92;;;;;;;32.02;38.56;94740.59;5000930;28;20254;-81
2022/07/30 09:33:39;;;;;;;5.30;3.78;;;;;;;31.92;36.46;94743.03;5011955;28;20184;-79
2022/07/30 09:36:09;;;;;;;7.45;3.70;;;;;;;31.79;37.11;94734.16;5023930;28;20263;-79
2022/07/30 09:38:59;;;;;;;4.43;3.50;;;;;;;31.61;36.63;94730.13;5031948;28;20207;-81
2022/07/30 09:41:36;;;;;;;6.75;3.78;;;;;;;31.71;37.71;94741.34;5021695;28;20670;-79
2022/07/30 09:44:03;;;;;;;5.22;4.72;;;;;;;31.78;38.12;94733.38;5012115;28;20573;-77
2022/07/30 09:46:46;;;;;;;3.95;3.50;;;;;;;31.84;37.58;94742.84;5011326;28;20187;-77
2022/07/30 09:49:16;;;;;;;4.78;3.72;;;;;;;31.46;38.43;94710.69;5010872;28;20278;-76
2022/07/30 09:51:41;;;;;;;9.00;3.90;;;;;;;31.55;39.30;94698.84;5011045;28;20646;-76
2022/07/30 09:54:07;;;;;;;8.63;4.68;;;;;;;31.68;38.33;94739.31;4991920;28;20188;-76
2022/07/30 09:56:32;;;;;;;5.45;3.88;;;;;;;31.69;38.22;94721.03;5008663;28;20650;-76
2022/07/30 09:58:57;;;;;;;5.05;3.90;;;;;;;31.68;38.67;94703.91;4990289;28;20651;-75
2022/07/30 10:01:23;;;;;;;4.70;3.70;;;;;;;31.86;38.41;94713.34;4990201;28;20232;-75
2022/07/30 10:03:49;;;;;;;5.82;3.78;;;;;;;31.81;37.72;94708.16;4990531;28;20188;-75
2022/07/30 10:06:14;;;;;;;8.05;4.55;;;;;;;31.59;37.93;94716.84;5000030;28;20191;-76
2022/07/30 10:08:49;;;;;;;6.13;3.80;;;;;;;31.44;37.45;94699.34;5009970;28;20196;-77
2022/07/30 10:11:18;;;;;;;7.13;4.03;;;;;;;31.60;37.09;94707.56;5009844;28;20172;-76
2022/07/30 10:13:44;;;;;;;4.32;3.90;;;;;;;31.58;38.52;94684.53;5010163;28;20173;-77
2022/07/30 10:16:10;;;;;;;7.30;3.95;;;;;;;31.74;37.34;94691.63;5010724;28;20630;-76
2022/07/30 10:18:37;;;;;;;4.13;3.72;;;;;;;31.84;37.36;94712.91;5009484;28;20216;-78
2022/07/30 10:21:03;;;;;;;4.05;3.67;;;;;;;31.83;38.43;94691.47;5010077;28;20181;-76
2022/07/30 10:23:31;;;;;;;3.97;3.40;;;;;;;31.80;36.30;94692.97;5009844;28;20656;-77
2022/07/30 10:25:58;;;;;;;5.35;4.45;;;;;;;31.59;37.70;94673.28;5010103;28;20187;-78
2022/07/30 10:28:24;;;;;;;6.05;3.83;;;;;;;31.46;37.60;94636.41;5009682;28;20211;-77
2022/07/30 10:30:51;;;;;;;5.38;3.70;;;;;;;31.73;36.96;94683.81;5009876;28;20161;-76
2022/07/30 10:33:17;;;;;;;7.50;4.40;;;;;;;31.72;36.91;94679.50;5009605;28;20187;-77
2022/07/30 10:35:43;;;;;;;5.68;3.90;;;;;;;31.70;36.40;94668.97;4990231;28;20309;-77
2022/07/30 10:38:11;;;;;;;4.22;3.75;;;;;;;31.75;37.18;94671.41;5002280;28;20177;-77
2022/07/30 10:40:51;;;;;;;4.75;4.25;;;;;;;31.78;36.45;94656.31;5005027;28;20172;-76
2022/07/30 10:43:38;;;;;;;6.90;4.43;;;;;;;31.94;36.74;94668.00;5007591;28;20258;-76
2022/07/30 10:46:22;;;;;;;5.15;4.28;;;;;;;32.02;37.40;94677.94;5009981;28;20184;-76
2022/07/30 10:48:47;;;;;;;4.75;4.35;;;;;;;31.94;36.42;94650.88;5008402;28;20211;-75
2022/07/30 10:51:13;;;;;;;5.78;4.25;;;;;;;31.64;37.23;94612.41;5003931;28;20196;-76
2022/07/30 10:53:45;;;;;;;9.30;4.13;;;;;;;31.93;36.75;94660.97;4997869;28;20672;-76
2022/07/30 10:56:19;;;;;;;7.07;4.72;;;;;;;31.89;38.16;94653.88;5001599;28;20184;-75
2022/07/30 10:59:09;;;;;;;6.38;4.45;;;;;;;31.94;37.24;94650.88;4999663;28;20234;-76
2022/07/30 11:01:47;;;;;;;8.55;4.13;;;;;;;31.90;37.85;94647.28;5002504;28;20725;-75
2022/07/30 11:04:26;;;;;;;4.80;4.28;;;;;;;31.97;37.02;94653.69;5003408;28;20188;-77
2022/07/30 11:07:21;;;;;;;7.22;3.80;;;;;;;31.76;36.91;94643.06;5004725;28;20191;-76
2022/07/30 11:09:48;;;;;;;5.75;4.00;;;;;;;31.73;37.89;94635.59;5008739;28;20279;-75
2022/07/30 11:12:13;;;;;;;6.82;4.40;;;;;;;31.72;37.67;94622.34;5005307;28;20195;-76
2022/07/30 11:14:45;;;;;;;4.97;4.47;;;;;;;31.92;38.05;94625.91;5009199;28;20168;-77
2022/07/30 11:17:15;;;;;;;9.38;4.32;;;;;;;31.80;36.42;94600.38;5005542;28;20195;-79
2022/07/30 11:20:06;;;;;;;6.85;4.85;;;;;;;32.02;36.50;94620.75;5011954;28;20224;-79
2022/07/30 11:22:40;;;;;;;4.85;4.32;;;;;;;32.12;36.81;94625.66;5007772;28;20712;-77
2022/07/30 11:25:20;;;;;;;9.32;4.60;;;;;;;31.98;36.71;94619.09;4993819;28;20751;-76
2022/07/30 11:27:47;;;;;;;5.20;4.47;;;;;;;32.01;36.94;94616.44;5014243;28;20615;-75
2022/07/30 11:30:15;;;;;;;7.18;4.95;;;;;;;32.11;36.34;94610.44;5012942;28;20646;-76
2022/07/30 11:33:04;;;;;;;6.13;4.75;;;;;;;32.15;36.01;94611.34;5012972;28;20172;-76
2022/07/30 11:35:31;;;;;;;4.93;4.28;;;;;;;32.01;36.37;94593.84;4989118;28;20196;-76